SVA238 OMDB-OERK
Flight info
| Callsign | SVA238 |
|---|---|
| Flight time | N/A |
| Altitude | 34000 |
| Route | ANVIX R401 GIDIS G783 ELUDA/N0500F360 G783 RIGIL M628 PEKEM/N0514F280 M628 AMBAG M321 NAGUB |
| Aircraft | B789/H-SDE1E2E3FGHIJ2J3J4J5M1RWXY/LB1D1 |
Departure
| Time | 2026-04-24 14:46 |
|---|---|
| Airport | Dubai International Airport (OMDB) |
Arrival
| Time | N/A |
|---|---|
| Airport | King Khalid International Airport (OERK) |
| Time | Latitude | Longitude | Altitude | Speed | Heading |
|---|---|---|---|---|---|
| 2026-04-24 14:16 | 25.25453 | 55.35280 | 26 ft | 0 kts | 212° |
| 2026-04-24 14:34 | 25.25457 | 55.35283 | 26 ft | 4 kts | 212° |
| 2026-04-24 14:34 | 25.25480 | 55.35298 | 26 ft | 4 kts | 211° |
| 2026-04-24 14:35 | 25.25502 | 55.35316 | 24 ft | 4 kts | 229° |
| 2026-04-24 14:35 | 25.25516 | 55.35340 | 25 ft | 4 kts | 255° |
| 2026-04-24 14:35 | 25.25517 | 55.35367 | 24 ft | 4 kts | 293° |
| 2026-04-24 14:35 | 25.25512 | 55.35378 | 24 ft | 1 kts | 302° |
| 2026-04-24 14:38 | 25.25524 | 55.35357 | 27 ft | 6 kts | 302° |
| 2026-04-24 14:39 | 25.25558 | 55.35297 | 27 ft | 12 kts | 302° |
| 2026-04-24 14:39 | 25.25593 | 55.35236 | 26 ft | 16 kts | 302° |
| 2026-04-24 14:39 | 25.25670 | 55.35165 | 27 ft | 13 kts | 0° |
| 2026-04-24 14:39 | 25.25761 | 55.35207 | 27 ft | 16 kts | 30° |
| 2026-04-24 14:40 | 25.25872 | 55.35283 | 27 ft | 21 kts | 31° |
| 2026-04-24 14:40 | 25.25987 | 55.35387 | 27 ft | 23 kts | 62° |
| 2026-04-24 14:40 | 25.25982 | 55.35566 | 27 ft | 26 kts | 117° |
| 2026-04-24 14:40 | 25.25882 | 55.35754 | 27 ft | 31 kts | 121° |
| 2026-04-24 14:41 | 25.25759 | 55.35966 | 28 ft | 35 kts | 123° |
| 2026-04-24 14:41 | 25.25623 | 55.36205 | 27 ft | 39 kts | 120° |
| 2026-04-24 14:41 | 25.25477 | 55.36467 | 28 ft | 40 kts | 122° |
| 2026-04-24 14:41 | 25.25331 | 55.36725 | 27 ft | 39 kts | 122° |
| 2026-04-24 14:42 | 25.25191 | 55.36975 | 27 ft | 38 kts | 122° |
| 2026-04-24 14:42 | 25.25055 | 55.37216 | 29 ft | 36 kts | 122° |
| 2026-04-24 14:42 | 25.24924 | 55.37451 | 28 ft | 35 kts | 121° |
| 2026-04-24 14:42 | 25.24794 | 55.37680 | 28 ft | 35 kts | 122° |
| 2026-04-24 14:43 | 25.24717 | 55.37841 | 28 ft | 10 kts | 90° |
| 2026-04-24 14:43 | 25.24731 | 55.37876 | 28 ft | 2 kts | 49° |
| 2026-04-24 14:43 | 25.24736 | 55.37881 | 28 ft | 0 kts | 37° |
| 2026-04-24 14:43 | 25.24737 | 55.37881 | 28 ft | 0 kts | 37° |
| 2026-04-24 14:44 | 25.24738 | 55.37883 | 28 ft | 1 kts | 37° |
| 2026-04-24 14:44 | 25.24759 | 55.37900 | 28 ft | 7 kts | 37° |
| 2026-04-24 14:44 | 25.24819 | 55.37944 | 30 ft | 12 kts | 25° |
| 2026-04-24 14:44 | 25.24870 | 55.37935 | 31 ft | 4 kts | 315° |
| 2026-04-24 14:45 | 25.24886 | 55.37893 | 31 ft | 7 kts | 292° |
| 2026-04-24 14:45 | 25.24917 | 55.37824 | 31 ft | 17 kts | 300° |
| 2026-04-24 14:45 | 25.25028 | 55.37630 | 32 ft | 50 kts | 302° |
| 2026-04-24 14:45 | 25.25314 | 55.37113 | 31 ft | 108 kts | 300° |
| 2026-04-24 14:46 | 25.25806 | 55.36225 | 33 ft | 161 kts | 302° |
| 2026-04-24 14:46 | 25.26410 | 55.35102 | 445 ft | 169 kts | 295° |
| 2026-04-24 14:46 | 25.27031 | 55.33923 | 948 ft | 189 kts | 302° |
| 2026-04-24 14:46 | 25.27802 | 55.32616 | 1325 ft | 217 kts | 305° |
| 2026-04-24 14:47 | 25.28565 | 55.31260 | 2461 ft | 201 kts | 303° |
| 2026-04-24 14:47 | 25.29182 | 55.29905 | 3377 ft | 199 kts | 283° |
| 2026-04-24 14:47 | 25.29091 | 55.28398 | 4099 ft | 196 kts | 254° |
| 2026-04-24 14:47 | 25.28527 | 55.27048 | 4931 ft | 196 kts | 246° |
| 2026-04-24 14:48 | 25.27947 | 55.25690 | 5728 ft | 198 kts | 246° |
| 2026-04-24 14:48 | 25.27353 | 55.24289 | 6355 ft | 209 kts | 246° |
| 2026-04-24 14:48 | 25.26697 | 55.22738 | 6602 ft | 239 kts | 246° |
| 2026-04-24 14:48 | 25.25952 | 55.20980 | 6927 ft | 260 kts | 246° |
| 2026-04-24 14:49 | 25.25156 | 55.19166 | 7873 ft | 259 kts | 241° |
| 2026-04-24 14:49 | 25.23928 | 55.17701 | 8736 ft | 267 kts | 217° |
| 2026-04-24 14:49 | 25.22211 | 55.16885 | 9611 ft | 275 kts | 193° |
| 2026-04-24 14:49 | 25.20281 | 55.16929 | 10394 ft | 284 kts | 168° |
| 2026-04-24 14:50 | 25.18506 | 55.17922 | 11003 ft | 300 kts | 141° |
| 2026-04-24 14:50 | 25.17221 | 55.19754 | 11768 ft | 308 kts | 119° |
| 2026-04-24 14:50 | 25.16219 | 55.21874 | 12502 ft | 312 kts | 120° |
| 2026-04-24 14:50 | 25.15169 | 55.24040 | 12868 ft | 334 kts | 120° |
| 2026-04-24 14:51 | 25.14028 | 55.26402 | 13135 ft | 362 kts | 120° |
| 2026-04-24 14:51 | 25.12807 | 55.28950 | 13419 ft | 389 kts | 120° |
| 2026-04-24 14:51 | 25.11531 | 55.31611 | 14207 ft | 393 kts | 120° |
| 2026-04-24 14:51 | 25.10309 | 55.34335 | 14980 ft | 400 kts | 114° |
| 2026-04-24 14:52 | 25.09184 | 55.37159 | 15744 ft | 405 kts | 116° |
| 2026-04-24 14:52 | 25.07951 | 55.39978 | 16497 ft | 410 kts | 120° |
| 2026-04-24 14:52 | 25.06235 | 55.42477 | 17222 ft | 411 kts | 138° |
| 2026-04-24 14:52 | 25.03949 | 55.44298 | 17956 ft | 413 kts | 155° |
| 2026-04-24 14:53 | 25.01247 | 55.45344 | 18603 ft | 414 kts | 172° |
| 2026-04-24 14:53 | 24.96630 | 55.45260 | 19670 ft | 413 kts | 196° |
| 2026-04-24 14:53 | 24.89450 | 55.39203 | 21741 ft | 413 kts | 241° |
| 2026-04-24 14:53 | 24.88200 | 55.36356 | 22406 ft | 412 kts | 247° |
| 2026-04-24 14:54 | 24.86303 | 55.31532 | 23512 ft | 415 kts | 245° |
| 2026-04-24 14:54 | 24.83948 | 55.26609 | 24352 ft | 420 kts | 243° |
| 2026-04-24 14:54 | 24.82617 | 55.23733 | 24876 ft | 422 kts | 245° |
| 2026-04-24 14:54 | 24.81330 | 55.20820 | 25325 ft | 425 kts | 245° |
| 2026-04-24 14:55 | 24.80012 | 55.17899 | 25786 ft | 427 kts | 244° |
| 2026-04-24 14:55 | 24.75224 | 55.07476 | 27319 ft | 437 kts | 244° |
| 2026-04-24 14:55 | 24.70149 | 54.95393 | 28958 ft | 443 kts | 255° |
| 2026-04-24 14:55 | 24.66829 | 54.82199 | 30249 ft | 453 kts | 253° |
| 2026-04-24 14:56 | 24.63298 | 54.68780 | 31369 ft | 460 kts | 254° |
| 2026-04-24 14:56 | 24.59679 | 54.55167 | 32297 ft | 468 kts | 254° |
| 2026-04-24 14:56 | 24.55996 | 54.41392 | 33345 ft | 470 kts | 255° |
| 2026-04-24 14:56 | 24.52338 | 54.27766 | 34811 ft | 458 kts | 255° |
| 2026-04-24 14:57 | 24.48742 | 54.14419 | 36012 ft | 452 kts | 256° |
| 2026-04-24 14:57 | 24.45207 | 54.01350 | 37327 ft | 442 kts | 257° |
| 2026-04-24 14:57 | 24.41751 | 53.88620 | 38623 ft | 431 kts | 257° |
| 2026-04-24 14:57 | 24.38313 | 53.76003 | 39177 ft | 432 kts | 257° |
| 2026-04-24 14:58 | 24.34860 | 53.63373 | 39781 ft | 431 kts | 257° |
| 2026-04-24 14:58 | 24.27956 | 53.38257 | 39858 ft | 433 kts | 256° |
| 2026-04-24 14:59 | 24.20977 | 53.13046 | 39864 ft | 431 kts | 256° |
| 2026-04-24 14:59 | 24.13983 | 52.87961 | 39869 ft | 430 kts | 256° |